WEATHER DATA

YESTERDAY
Time Temp. Dewp. Hum. Wind dir Wind speed Wind gust Bar. 1h Prec. 24h Prec.
00:05 6.3 2 74 90 0.3 0.8 1017.1 0.0000 0.0000
00:15 6.3 1.8 73 90 0.3 0.8 1017.1 0.0000 0.0000
00:25 6.2 1.7 73 90 0.3 0.8 1017.1 0.0000 0.0000
00:35 6 1.5 73 90 0.3 0.8 1017.2 0.0000 0.0000
00:45 5.8 1.3 73 90 0.3 0.8 1017.2 0.0000 0.0000
00:55 5.7 1.2 73 53 0.3 0.8 1017.3 0.0000 0.0000
01:15 5.3 1 74 0 0.8 1017.1 0.0000 0.0000
01:25 5.1 0.9 74 52 0.3 0.8 1017.4 0.0000 0.0000
01:35 5.1 1 75 51 0.3 0.8 1017.4 0.0000 0.0000
01:45 5 0.9 75 90 0.3 0.8 1017.5 0.0000 0.0000
01:55 5 0.9 75 51 0.3 0.8 1017.5 0.0000 0.0000
02:05 4.9 0.8 75 45 0.3 0.8 1017.5 0.0000 0.0000
02:16 4.8 0.8 75 57 0.3 0.8 1017.4 0.0000 0.0000
02:26 4.7 0.7 75 50 0.3 0.8 1017.4 0.0000 0.0000
02:35 4.6 0.6 75 30 0.3 0.8 1017.5 0.0000 0.0000
02:45 4.6 0.6 75 36 0.3 0.8 1017.5 0.0000 0.0000
02:56 4.6 0.7 76 56 0.3 0.8 1017.4 0.0000 0.0000
03:06 4.6 0.7 76 52 0.3 0.8 1017.3 0.0000 0.0000
03:16 4.7 0.8 76 90 0.3 0.8 1017.4 0.0000 0.0000
03:26 4.8 0.8 75 45 0.3 1.1 1017.2 0.0000 0.0000
03:36 4.8 0.8 75 90 0.3 0.8 1017.2 0.0000 0.0000
03:46 4.8 0.8 75 90 0.3 0.8 1017.2 0.0000 0.0000
03:56 4.6 0.4 74 54 0.3 0.8 1017.3 0.0000 0.0000
04:06 4.4 0.2 74 90 0.3 0.8 1017.1 0.0000 0.0000
04:16 4.3 0.3 75 90 0.3 1.1 1017 0.0000 0.0000
04:26 4.2 0.2 75 90 0.3 0.8 1017 0.0000 0.0000
04:37 4.1 0.1 75 90 0.3 0.8 1017 0.0000 0.0000
04:46 4 0 75 90 0.3 0.8 1017.1 0.0000 0.0000
04:56 4 0.2 76 90 0.3 0.8 1017.1 0.0000 0.0000
05:06 4.1 0.3 76 90 0.3 0.8 1017.2 0.0000 0.0000
05:17 4 0.2 76 90 0.3 0.8 1017.1 0.0000 0.0000
05:27 3.9 0.1 76 90 0.3 0.8 1017.3 0.0000 0.0000
05:36 3.9 0.1 76 90 0.3 1.1 1017.2 0.0000 0.0000
05:47 3.9 0.1 76 90 0.3 1.4 1017.2 0.0000 0.0000
05:57 4 0.2 76 90 0.3 0.8 1017.2 0.0000 0.0000
06:07 4 0.2 76 90 0.3 1.1 1017.2 0.0000 0.0000
06:16 4 0.2 76 90 0.3 0.8 1017.1 0.0000 0.0000
06:27 3.9 0.1 76 90 0.3 0.8 1017.1 0.0000 0.0000
06:37 3.9 0.1 76 90 0.3 1.1 1017 0.0000 0.0000
06:47 3.8 0 76 90 0.3 1.1 1017 0.0000 0.0000
06:57 3.8 0 76 90 0.3 0.8 1017 0.0000 0.0000
07:07 3.6 -0.2 76 90 0.3 0.8 1016.9 0.0000 0.0000
07:17 3.5 -0.3 76 90 0.3 0.8 1017 0.0000 0.0000
07:27 3.4 -0.4 76 90 0.3 0.8 1016.8 0.0000 0.0000
07:37 3.3 -0.3 77 90 0.3 0.8 1016.9 0.0000 0.0000
07:47 3.2 -0.4 77 90 0.3 0.3 1017.1 0.0000 0.0000
07:57 3.1 -0.5 77 90 0.3 0.8 1017.2 0.0000 0.0000
08:08 3.2 -0.2 78 90 0.3 0.8 1017.3 0.0000 0.0000
08:17 3.2 -0.2 78 90 0.3 0.8 1017.3 0.0000 0.0000
08:27 3.4 -0.1 78 90 0.3 0.8 1017.4 0.0000 0.0000
08:37 3.6 0.1 78 90 0.3 0.8 1017.3 0.0000 0.0000
08:48 3.9 0.4 78 90 0.3 1.4 1017.3 0.0000 0.0000
08:57 4.2 0.7 78 90 0.3 1.1 1017.1 0.0000 0.0000
09:07 4.5 1 78 90 0.3 1.4 1017 0.0000 0.0000
09:18 4.9 1.2 77 90 0.3 1.7 1017.1 0.0000 0.0000
09:28 5.3 1.4 76 108 0.8 1.7 1017 0.0000 0.0000
09:37 6.1 2.6 78 135 0.3 2.2 1016.9 0.0000 0.0000
09:48 8.3 4.3 76 135 0.3 1.1 1016.9 0.0000 0.0000
09:58 9.7 4.7 71 90 0.3 1.7 1016.8 0.0000 0.0000
10:08 10.4 4.5 67 102 0.8 1.7 1016.8 0.0000 0.0000
10:17 10.6 4.5 66 101 0.8 1.7 1016.4 0.0000 0.0000
10:28 10.5 3.8 63 118 0.8 2.2 1016.2 0.0000 0.0000
10:38 10.7 4 63 131 0.8 1.4 1016.3 0.0000 0.0000
10:48 11 4 62 140 0.8 2.5 1016.4 0.0000 0.0000
10:58 11.3 4.3 62 207 0.8 2.5 1016.4 0.0000 0.0000
11:08 11.5 4.7 63 161 0.8 2.2 1016.3 0.0000 0.0000
11:18 11.8 4.8 62 135 0.8 2.5 1016 0.0000 0.0000
11:28 12.2 5.4 63 161 0.8 2.2 1016.1 0.0000 0.0000
11:39 12.6 5 60 141 0.8 2.5 1016.1 0.0000 0.0000
11:48 12.9 4.6 57 189 1.1 3.3 1015.9 0.0000 0.0000
11:58 13.2 4.4 55 135 1.1 2.5 1015.8 0.0000 0.0000
12:08 13.4 4.6 55 139 0.8 2.8 1015.6 0.0000 0.0000
12:19 13.7 4.6 54 104 1.1 2.8 1015.5 0.0000 0.0000
12:28 13.8 4.4 53 117 1.1 3.3 1015.3 0.0000 0.0000
12:38 14 4.6 53 120 1.1 2.2 1015.1 0.0000 0.0000
12:49 14.1 4.7 53 127 0.8 2.8 1015 0.0000 0.0000
12:59 14.1 4.4 52 128 1.1 3.9 1015.1 0.0000 0.0000
13:08 14.2 4.5 52 120 1.1 3.3 1014.9 0.0000 0.0000
13:19 14.2 4.2 51 161 1.4 4.2 1014.8 0.0000 0.0000
13:29 14.3 4.3 51 139 0.8 2.5 1014.7 0.0000 0.0000
13:39 14.4 4.7 52 163 1.1 2.5 1014.6 0.0000 0.0000
13:48 14.4 4.7 52 204 1.1 2.2 1014.4 0.0000 0.0000
13:59 14.5 4.5 51 213 0.8 2.8 1014.3 0.0000 0.0000
14:09 14.5 4.5 51 223 1.1 3.3 1014.2 0.0000 0.0000
14:19 14.5 4.5 51 209 1.1 3.6 1014.3 0.0000 0.0000
14:29 14.6 4.9 52 225 1.4 3.3 1014 0.0000 0.0000
14:39 14.6 4.9 52 192 1.1 3.3 1013.8 0.0000 0.0000
14:49 14.6 4.9 52 176 1.1 3.3 1013.7 0.0000 0.0000
14:59 14.6 5.1 53 225 0.8 2.5 1013.7 0.0000 0.0000
15:10 14.6 5.1 53 216 0.8 2.8 1013.7 0.0000 0.0000
15:19 14.6 5.4 54 171 0.8 1.1 1013.6 0.0000 0.0000
15:29 14.5 5 53 220 1.1 3.6 1013.6 0.0000 0.0000
15:40 14.4 5.2 54 184 0.8 1.4 1013.5 0.0000 0.0000
15:50 14.2 5.3 55 221 0.8 1.4 1013.6 0.0000 0.0000
15:59 14.2 5.3 55 214 0.8 2.2 1013.5 0.0000 0.0000
16:09 14 5.4 56 225 0.3 1.7 1013.4 0.0000 0.0000
16:20 13.9 5.5 57 225 0.8 2.2 1013.4 0.0000 0.0000
16:30 13.8 5.4 57 210 0.3 1.4 1013.3 0.0000 0.0000
16:39 13.6 5.5 58 225 0.3 1.4 1013.2 0.0000 0.0000
16:50 13.5 5.4 58 225 0.3 1.7 1013.2 0.0000 0.0000
17:00 13.3 5.5 59 210 0.3 1.4 1013 0.0000 0.0000
17:10 13.1 5.3 59 225 0.3 1.1 1013 0.0000 0.0000
17:20 12.9 5.3 60 90 0.3 0.8 1012.9 0.0000 0.0000
17:30 12.6 5 60 90 0.3 0.8 1012.8 0.0000 0.0000
17:40 12.3 5 61 90 0.3 0.8 1012.7 0.0000 0.0000
17:50 12 4.7 61 90 0.3 1.1 1012.8 0.0000 0.0000
18:00 11.6 4.8 63 126 0.3 0.8 1012.8 0.0000 0.0000
18:10 11.3 4.5 63 146 0.3 0.8 1012.8 0.0000 0.0000
18:20 10.9 4.4 64 90 0.3 0.8 1012.8 0.0000 0.0000
18:30 10.6 4.3 65 90 0.3 0.8 1012.7 0.0000 0.0000
18:41 10.3 4 65 0 0.3 1012.6 0.0000 0.0000
18:51 9.9 3.9 66 90 0.3 0.8 1012.7 0.0000 0.0000
19:00 9.7 3.7 66 90 0.3 0.8 1012.6 0.0000 0.0000
19:11 9.4 3.6 67 90 0.3 0.8 1012.6 0.0000 0.0000
19:21 9.1 3.3 67 90 0.3 0.8 1012.6 0.0000 0.0000
19:31 8.9 3.3 68 135 0.3 0.8 1012.6 0.0000 0.0000
19:40 8.6 3 68 122 0.3 0.8 1012.4 0.0000 0.0000
19:51 8.3 3 69 0 0.3 1012.5 0.0000 0.0000
20:01 8.1 2.8 69 0 0.3 1012.3 0.0000 0.0000
20:11 7.9 2.8 70 90 0.3 0.8 1012.4 0.0000 0.0000
20:21 7.8 2.7 70 90 0.3 0.8 1012.4 0.0000 0.0000
20:31 7.6 2.5 70 90 0.3 0.8 1012.3 0.0000 0.0000
20:41 7.4 2.5 71 90 0.3 0.8 1012.3 0.0000 0.0000
20:51 7.3 2.4 71 90 0.3 0.8 1012.3 0.0000 0.0000
21:02 7.1 2.4 72 90 0.3 0.8 1012.4 0.0000 0.0000
21:11 7 2.3 72 90 0.3 0.8 1012.4 0.0000 0.0000
21:21 6.9 2.4 73 90 0.3 0.8 1012.5 0.0000 0.0000
21:31 6.8 2.1 72 90 0.3 0.8 1012.2 0.0000 0.0000
21:42 6.7 2.2 73 90 0.3 0.8 1012.4 0.0000 0.0000
21:51 6.7 2.4 74 90 0.3 0.8 1012.3 0.0000 0.0000
22:01 6.7 2.6 75 90 0.3 0.8 1012.2 0.0000 0.0000
22:12 7 2.9 75 235 0.8 1.4 1012.1 0.0000 0.0000
22:22 7.3 3.4 76 241 0.8 1.4 1012.2 0.0000 0.0000
22:31 7.5 3.4 75 225 0.3 0.8 1012 0.0000 0.0000
22:42 7.6 3.5 75 168 0.3 0.8 1012.2 0.0000 0.0000
22:52 7.5 3.2 74 123 0.3 0.8 1012 0.0000 0.0000
23:02 7.3 3 74 126 0.3 0.8 1012.1 0.0000 0.0000
23:11 7.1 2.8 74 90 0.3 0.8 1012 0.0000 0.0000
23:22 7 2.9 75 90 0.3 0.8 1011.9 0.0000 0.0000
23:32 6.7 2.6 75 90 0.3 0.8 1012 0.0000 0.0000
23:42 6.5 2.4 75 90 0.3 1.1 1011.8 0.0000 0.0000
23:52 6.3 2.2 75 90 0.3 0.8 1011.7 0.0000 0.0000

DAY STATISTIC

2019-02-18
TEMPERATURE
AVERAGE
8.4
HIGH
14.6
14:29
LOW
3.1
07:57
PRESSURE
AVERAGE
1015.1
HIGH
1017.5
01:45
LOW
1011.7
23:52
DEWPOINT
AVERAGE
2.6
HIGH
5.5
16:20
LOW
-0.5
07:57
HUMIDITY
AVERAGE
68
HIGH
78
08:08
LOW
51
13:19
WIND SPEED
AVERAGE
0.5
HIGH
1.4
13:19
WIND GUST
AVERAGE
1.4
HIGH
4.2
13:19
WIND DIRECTION
PREVAILING
E
51.4%
N
0.0
NE
9.2
E
51.4
SE
14.8
S
7.7
SW
14.1
W
0.0
NW
0.0
PRECIPITATION
RAIN HOUR
0.0
RAIN DAY
0.0
TEMPERATURE (°C)
LOW
3.1
HIGH
14.6
AVERAGE
8.4
PRESSURE (hpa)
LOW
1011.7
HIGH
1017.5
AVERAGE
1015.1
DEVICE